Search for airport 
image banner adimage banner ad
image banner ad

DAOF - Tindouf

Located in Tindouf, Algeria

ICAO - DAOF, IATA - TIN

Data provided by Airmate  

General information

Coordinates: N27°42'0" W8°9'60"
Elevation is 1453 feet MSL.
 
Rated:
View ratings: [VIEW]


View others Airports in Tindouf Province

Operational data

Open for public use
Current time UTC:
Current local time:
Weather
METAR: DAOF 122300Z 35004KT 9999 FEW046 35/03 Q1011
TAF: TAF DAOF 122000Z 1221/1306 32012KT 9999 FEW046
View NOTAMs / SUP AIP / TFR affecting this airport [VIEW]
Communications frequencies: [VIEW]

Runways:

RWY identifierQFULength (ft)Width (ft)SurfaceLDA (ft)
08R76°9843148
26L256°9843148
08L76°9843148
26R256°9843148

Airport contact information

Address: Tindouf Algeria

Satellite view of DAOF